Weather reports worldwide

Advertisment
San Vicente, Spain (8017): temperature & dewpoint: 13.03.2019 10:00:00 - 19.03.2019 10:00:00 (CET)San Vicente, Spain (8017): wind speed & gusts: 13.03.2019 10:00:00 - 19.03.2019 10:00:00 (CET)San Vicente, Spain (8017): wind direction: 13.03.2019 10:00:00 - 19.03.2019 10:00:00 (CET)San Vicente, Spain (8017): reduced air pressure: 13.03.2019 10:00:00 - 19.03.2019 10:00:00 (CET)San Vicente, Spain (8017): precipitation: 13.03.2019 10:00:00 - 19.03.2019 10:00:00 (CET)
Date & Time tt [°C] td [°C] ff [km/h] ff [kn] fx [km/h] fx [kn] dd ppp [hPa] rr [mm]
19.03.2019 10:00:00 - - - - - - - - -
19.03.2019 09:00:00 9,0 7,7 18 10 28 15 W 1029,8 0,8
19.03.2019 08:00:00 8,4 7,0 11 6 26 14 W 1029,3 0,7
19.03.2019 07:00:00 8,2 6,8 12 6 25 14 W 1029,2 -
19.03.2019 06:00:00 8,3 6,7 6 3 28 15 W 1029,1 0,3
19.03.2019 05:00:00 8,6 7,3 19 11 37 20 W 1029,0 0,7
19.03.2019 04:00:00 8,2 6,7 10 5 26 14 W 1029,2 1,6
19.03.2019 03:00:00 8,3 6,4 10 6 19 11 W 1029,6 0,5
19.03.2019 02:00:00 8,2 6,7 9 5 32 18 W 1029,9 0,4
19.03.2019 01:00:00 8,6 6,5 19 10 34 18 WNW 1029,9 -
19.03.2019 00:00:00 9,8 5,8 14 7 32 18 W 1030,2 0,0
18.03.2019 23:00:00 9,9 6,2 15 8 31 17 WNW 1030,6 0,0
18.03.2019 22:00:00 10,3 6,4 21 11 32 17 NW 1030,3 0,0
18.03.2019 21:00:00 10,3 5,6 14 8 25 13 WNW 1029,9 0,0
18.03.2019 20:00:00 10,2 5,9 16 9 27 14 NW 1030,1 0,0
18.03.2019 19:00:00 10,3 6,8 16 9 28 15 NW 1030,1 -
18.03.2019 18:00:00 10,3 6,1 17 9 28 15 NW 1029,6 0,0
18.03.2019 17:00:00 10,9 6,4 21 12 31 17 NW 1029,4 0,0
18.03.2019 16:00:00 10,7 5,6 17 9 30 16 NW 1029,5 0,0
18.03.2019 15:00:00 11,6 5,9 16 9 22 12 NW 1030,0 0,0
18.03.2019 14:00:00 11,1 6,1 18 10 24 13 NW 1030,4 0,0
18.03.2019 13:00:00 11,2 5,9 12 7 19 11 WNW 1030,7 -
18.03.2019 12:00:00 9,8 7,3 4 2 26 14 W 1030,9 0,4
18.03.2019 11:00:00 10,4 6,1 6 4 16 9 W 1030,8 0,0
18.03.2019 10:00:00 9,2 6,2 3 2 18 10 WSW 1030,4 0,0
18.03.2019 09:00:00 8,1 5,6 3 2 14 7 WSW 1029,6 0,0
18.03.2019 08:00:00 6,9 4,3 5 3 18 10 WSW 1028,9 0,0
18.03.2019 07:00:00 6,7 4,5 2 1 13 7 SW 1028,7 -
18.03.2019 06:00:00 6,9 4,5 6 4 16 9 WSW 1028,5 0,0
18.03.2019 05:00:00 7,2 4,1 6 4 19 11 W 1028,2 0,0
18.03.2019 04:00:00 7,0 3,9 3 2 15 8 WSW 1028,0 0,1
18.03.2019 03:00:00 7,1 3,6 3 2 19 10 WSW 1028,0 0,1
18.03.2019 02:00:00 7,3 3,6 8 5 23 13 W 1028,1 0,0
18.03.2019 01:00:00 6,6 3,0 3 2 14 8 SW 1028,1 -
18.03.2019 00:00:00 6,8 3,2 2 1 16 9 SW 1028,5 0,0
17.03.2019 23:00:00 7,5 3,4 3 2 16 9 WSW 1028,3 0,0
17.03.2019 22:00:00 8,2 3,2 3 2 35 19 SW 1028,0 0,0
17.03.2019 21:00:00 9,5 2,3 21 12 34 19 NW 1027,6 0,0
17.03.2019 20:00:00 9,9 3,6 24 13 34 18 NW 1026,9 0,0
17.03.2019 19:00:00 9,9 3,2 20 11 29 16 NW 1026,4 -
17.03.2019 18:00:00 9,8 5,5 11 6 27 15 W 1025,9 0,0
17.03.2019 17:00:00 10,1 4,8 20 11 35 19 WNW 1025,4 0,0
17.03.2019 16:00:00 10,9 6,8 16 9 29 15 WNW 1025,2 0,0
17.03.2019 15:00:00 9,8 7,3 18 10 33 18 W 1025,2 0,4
17.03.2019 14:00:00 9,1 6,5 24 13 39 21 WNW 1025,2 0,0
17.03.2019 13:00:00 9,4 7,8 16 8 44 24 W 1025,0 -
17.03.2019 12:00:00 9,6 6,5 11 6 23 13 W 1024,1 0,0
17.03.2019 11:00:00 8,4 7,1 16 9 40 21 W 1023,5 0,3
17.03.2019 10:00:00 8,6 7,6 15 8 40 22 W 1022,6 0,3
17.03.2019 09:00:00 8,9 7,8 30 16 53 29 WNW 1021,5 0,1
17.03.2019 08:00:00 10,3 9,0 36 19 57 31 W 1019,5 0,2
17.03.2019 07:00:00 11,1 8,7 28 15 48 26 WNW 1018,0 -
17.03.2019 06:00:00 10,7 7,6 4 2 13 7 SW 1017,1 0,0
17.03.2019 05:00:00 9,8 8,3 6 4 13 7 S 1016,7 0,0
17.03.2019 04:00:00 10,1 8,4 6 4 11 6 S 1016,9 0,0
17.03.2019 03:00:00 10,5 8,8 2 1 9 5 SSW 1017,3 0,0
17.03.2019 02:00:00 10,7 8,7 2 1 7 4 W 1017,2 0,0
17.03.2019 01:00:00 10,8 8,8 0 0 8 4 W 1016,6 -
17.03.2019 00:00:00 10,7 8,7 5 3 9 5 SSE 1016,6 0,0
16.03.2019 23:00:00 10,9 8,8 2 1 14 8 SSW 1017,4 0,0
16.03.2019 22:00:00 10,9 8,7 9 5 25 13 W 1018,0 0,0
16.03.2019 21:00:00 10,9 8,7 18 10 30 16 WNW 1018,0 0,0
16.03.2019 20:00:00 10,9 8,8 22 12 38 21 WNW 1017,2 0,0
16.03.2019 19:00:00 10,9 9,0 17 9 27 15 W 1016,5 -
16.03.2019 18:00:00 12,1 8,9 16 9 27 14 WNW 1016,2 0,0
16.03.2019 17:00:00 12,8 9,0 13 7 22 12 WNW 1016,1 0,0
16.03.2019 16:00:00 12,8 9,8 14 7 21 11 NW 1016,2 0,0
16.03.2019 15:00:00 12,4 9,2 9 5 19 10 NW 1016,4 0,0
16.03.2019 14:00:00 12,2 8,8 13 7 21 11 NW 1017,4 0,0
16.03.2019 13:00:00 12,0 8,5 14 8 25 14 WNW 1018,4 -
16.03.2019 12:00:00 11,6 7,8 14 7 19 10 NW 1018,7 0,0
16.03.2019 11:00:00 10,8 7,0 5 3 11 6 NW 1019,2 0,0
16.03.2019 10:00:00 9,6 7,7 3 2 11 6 SSW 1019,7 0,0
16.03.2019 09:00:00 5,8 4,8 6 3 14 8 SW 1020,1 0,0
16.03.2019 08:00:00 4,2 3,2 11 6 15 8 SW 1020,4 0,0
16.03.2019 07:00:00 4,0 3,0 13 7 16 8 SSW 1020,9 -
16.03.2019 06:00:00 4,4 3,4 11 6 16 8 SSW 1022,3 0,0
16.03.2019 05:00:00 4,9 3,9 12 7 16 9 SSW 1023,0 0,0
16.03.2019 04:00:00 5,8 4,8 11 6 16 9 SSW 1023,5 0,0
16.03.2019 03:00:00 5,9 4,8 11 6 14 8 SSW 1024,6 0,0
16.03.2019 02:00:00 6,8 5,6 10 5 13 7 S 1025,6 0,0
16.03.2019 01:00:00 8,2 6,7 8 5 12 6 SSW 1026,3 -
16.03.2019 00:00:00 9,2 6,8 5 3 11 6 ESE 1026,6 0,0
15.03.2019 23:00:00 10,8 7,4 4 2 13 7 ESE 1027,1 0,0
15.03.2019 22:00:00 11,1 8,0 3 2 12 7 E 1027,7 0,0
15.03.2019 21:00:00 11,3 8,0 0 0 8 5 NE 1028,1 0,0
15.03.2019 20:00:00 11,2 8,1 2 1 8 4 WNW 1028,4 0,0
15.03.2019 19:00:00 11,2 8,1 6 3 15 8 N 1028,3 -
15.03.2019 18:00:00 11,6 7,8 3 2 13 7 N 1028,4 0,0
15.03.2019 17:00:00 11,7 7,6 5 3 16 9 N 1028,4 0,0
15.03.2019 16:00:00 11,9 7,3 7 4 19 10 N 1028,6 0,0
15.03.2019 15:00:00 12,9 7,3 10 5 23 13 NW 1029,0 0,0
15.03.2019 14:00:00 12,5 7,0 17 9 23 13 NW 1029,5 0,0
15.03.2019 13:00:00 12,5 6,1 13 7 19 11 NW 1029,7 -
15.03.2019 12:00:00 12,4 5,9 11 6 18 10 WNW 1030,3 0,0
15.03.2019 11:00:00 12,4 5,9 2 1 10 5 SW 1030,5 0,0
15.03.2019 10:00:00 10,7 6,1 4 2 15 8 SW 1030,6 0,0
15.03.2019 09:00:00 9,4 5,8 5 3 11 6 SSW 1030,6 0,0
15.03.2019 08:00:00 8,4 5,5 5 3 14 8 SW 1030,4 0,0
15.03.2019 07:00:00 7,8 5,3 3 1 10 5 SW 1030,3 -
15.03.2019 06:00:00 8,4 5,5 4 2 10 5 SW 1030,3 0,0
15.03.2019 05:00:00 8,3 6,1 7 4 10 6 SSW 1030,3 0,0
15.03.2019 04:00:00 9,0 5,9 4 2 11 6 SW 1030,4 0,0
15.03.2019 03:00:00 9,4 6,1 3 2 11 6 SW 1031,0 0,0
15.03.2019 02:00:00 9,7 6,2 5 3 8 4 SSW 1031,4 0,0
15.03.2019 01:00:00 10,6 6,1 4 2 20 11 SSW 1031,7 -
15.03.2019 00:00:00 11,1 7,3 13 7 22 12 W 1032,1 0,0
14.03.2019 23:00:00 11,2 8,3 16 9 28 15 WNW 1031,9 0,0
14.03.2019 22:00:00 11,1 6,7 12 7 23 13 W 1031,9 0,0
14.03.2019 21:00:00 11,1 7,4 14 7 35 19 W 1031,8 0,0
14.03.2019 20:00:00 11,2 7,1 21 11 35 19 WNW 1031,6 0,0
14.03.2019 19:00:00 11,1 7,0 22 12 38 21 WNW 1031,2 -
14.03.2019 18:00:00 11,0 6,5 22 12 41 22 WNW 1031,0 0,0
14.03.2019 17:00:00 11,4 7,0 24 13 42 23 WNW 1031,3 0,0
14.03.2019 16:00:00 11,2 6,1 29 16 45 24 WNW 1031,4 0,0
14.03.2019 15:00:00 11,6 5,9 29 16 47 26 WNW 1031,5 0,0
14.03.2019 14:00:00 12,2 5,8 29 16 44 24 NW 1031,9 0,0
14.03.2019 13:00:00 12,4 5,1 22 12 41 22 WNW 1032,3 -
14.03.2019 12:00:00 12,0 5,0 24 13 38 21 WNW 1032,8 0,0
14.03.2019 11:00:00 11,3 3,8 22 12 37 20 WNW 1033,0 0,0
14.03.2019 10:00:00 11,1 4,1 8 4 22 12 W 1033,3 0,0
14.03.2019 09:00:00 8,8 2,9 3 2 12 7 SW 1032,9 0,0
14.03.2019 08:00:00 8,3 2,5 4 2 15 8 SW 1032,5 0,0
14.03.2019 07:00:00 8,5 2,9 3 2 16 8 SW 1032,3 -
14.03.2019 06:00:00 8,5 3,6 6 4 24 13 SSW 1032,5 0,0
14.03.2019 05:00:00 9,6 3,9 16 8 31 17 W 1032,7 0,0
14.03.2019 04:00:00 9,0 4,8 9 5 26 14 W 1033,6 0,0
14.03.2019 03:00:00 8,8 4,5 6 3 30 16 W 1034,3 0,0
14.03.2019 02:00:00 9,0 5,0 22 12 38 21 W 1034,1 0,0
14.03.2019 01:00:00 9,1 6,4 24 13 39 21 NW 1034,0 -
14.03.2019 00:00:00 9,0 5,8 24 13 39 21 WNW 1034,3 0,0
13.03.2019 23:00:00 8,8 5,0 19 11 40 22 W 1034,2 0,0
13.03.2019 22:00:00 8,6 6,5 13 7 43 23 W 1034,0 0,7
13.03.2019 21:00:00 8,8 5,8 14 7 31 17 W 1033,9 0,6
13.03.2019 20:00:00 9,1 5,3 13 7 42 23 W 1033,5 0,0
13.03.2019 19:00:00 9,5 7,0 24 13 51 28 WNW 1032,7 -
13.03.2019 18:00:00 10,4 6,1 28 15 51 28 WNW 1032,4 0,0
13.03.2019 17:00:00 11,0 5,9 26 14 58 32 WNW 1032,3 0,0
13.03.2019 16:00:00 10,9 5,8 32 17 48 26 NW 1031,9 0,1
13.03.2019 15:00:00 - - - - - - - - -
13.03.2019 14:00:00 11,0 7,1 22 12 53 29 W 1032,0 0,2
13.03.2019 13:00:00 11,4 5,3 23 12 47 25 W 1031,8 -
13.03.2019 12:00:00 9,3 6,5 26 14 51 27 W 1031,7 0,3
13.03.2019 11:00:00 10,1 4,6 26 14 42 23 W 1031,0 0,0
13.03.2019 10:00:00 9,5 4,5 23 12 58 31 W 1030,5 0,0

tt = temperature
td = dewpoint
ff = wind speed
fx = gusts
dd = wind direction
ppp = reduced air pressure
rr = precipitation

Next stations